createdAt,value
2019-06-07T00:01:44.617Z,86.40
2019-06-07T00:04:13.483Z,86.30
2019-06-07T00:06:39.510Z,86.30
2019-06-07T00:09:08.189Z,85.70
2019-06-07T00:11:34.423Z,85.50
2019-06-07T00:14:02.386Z,85.70
2019-06-07T00:16:28.615Z,86.30
2019-06-07T00:18:55.190Z,86.70
2019-06-07T00:22:11.391Z,87.00
2019-06-07T00:23:49.658Z,87.20
2019-06-07T00:26:19.166Z,87.70
2019-06-07T00:28:44.242Z,86.80
2019-06-07T00:31:11.545Z,87.00
2019-06-07T00:33:38.689Z,87.20
2019-06-07T00:36:05.342Z,87.40
2019-06-07T00:38:31.956Z,87.80
2019-06-07T00:40:58.186Z,88.20
2019-06-07T00:43:28.134Z,88.50
2019-06-07T00:45:52.464Z,88.80
2019-06-07T00:48:27.477Z,88.90
2019-06-07T00:50:47.205Z,88.60
2019-06-07T00:53:17.678Z,88.00
2019-06-07T00:55:42.225Z,87.40
2019-06-07T00:58:08.846Z,87.30
2019-06-07T01:00:35.523Z,87.00
2019-06-07T01:03:02.555Z,86.90
2019-06-07T01:05:31.452Z,86.50
2019-06-07T01:07:57.365Z,85.50
2019-06-07T01:10:51.604Z,84.80
2019-06-07T01:12:52.698Z,84.30
2019-06-07T01:15:28.551Z,84.00
2019-06-07T01:18:32.970Z,83.70
2019-06-07T01:20:23.813Z,83.80
2019-06-07T01:22:49.285Z,84.50
2019-06-07T01:25:15.901Z,85.10
2019-06-07T01:27:42.393Z,85.40
2019-06-07T01:30:14.469Z,85.50
2019-06-07T01:32:40.957Z,85.10
2019-06-07T01:35:08.610Z,85.30
2019-06-07T01:37:35.040Z,84.80
2019-06-07T01:40:01.961Z,84.60
2019-06-07T01:42:29.487Z,84.00
2019-06-07T01:44:56.610Z,84.40
2019-06-07T01:47:25.625Z,84.80
2019-06-07T01:49:51.546Z,84.30
2019-06-07T01:52:19.602Z,83.80
2019-06-07T01:54:57.860Z,84.20
2019-06-07T01:57:30.923Z,84.00
2019-06-07T01:59:42.976Z,83.90
2019-06-07T02:02:09.645Z,84.20
2019-06-07T02:04:36.250Z,84.40
2019-06-07T02:07:02.505Z,84.40
2019-06-07T02:09:31.691Z,84.80
2019-06-07T02:11:57.003Z,84.70
2019-06-07T02:14:25.750Z,85.00
2019-06-07T02:16:51.510Z,85.10
2019-06-07T02:19:17.742Z,85.30
2019-06-07T02:21:44.391Z,84.90
2019-06-07T02:24:11.026Z,84.80
2019-06-07T02:26:37.648Z,84.50
2019-06-07T02:29:04.027Z,84.50
2019-06-07T02:31:38.269Z,83.80
2019-06-07T02:33:58.816Z,84.10
2019-06-07T02:36:29.700Z,84.20
2019-06-07T02:38:53.701Z,83.80
2019-06-07T02:41:22.912Z,83.30
2019-06-07T02:43:48.403Z,83.00
2019-06-07T02:46:30.401Z,82.60
2019-06-07T02:48:52.314Z,82.50
2019-06-07T02:51:18.790Z,82.50
2019-06-07T02:53:45.422Z,83.00
2019-06-07T02:56:37.441Z,83.40
2019-06-07T02:58:42.004Z,83.80
2019-06-07T03:01:09.701Z,84.10
2019-06-07T03:03:39.918Z,84.30
2019-06-07T03:06:05.698Z,84.20
2019-06-07T03:08:35.529Z,84.70
2019-06-07T03:11:02.612Z,85.20
2019-06-07T03:13:34.907Z,85.70
2019-06-07T03:16:03.824Z,86.00
2019-06-07T03:18:48.786Z,86.40
2019-06-07T03:21:21.005Z,86.50
2019-06-07T03:23:47.265Z,86.50
2019-06-07T03:26:15.412Z,86.50
2019-06-07T03:28:41.893Z,86.50
2019-06-07T03:31:08.441Z,87.50
2019-06-07T03:33:41.497Z,86.70
2019-06-07T03:36:22.703Z,86.60
2019-06-07T03:38:34.389Z,86.00
2019-06-07T03:40:59.904Z,86.10
2019-06-07T03:43:27.335Z,86.30
2019-06-07T03:45:53.964Z,86.90
2019-06-07T03:48:20.206Z,86.10
2019-06-07T03:50:46.861Z,85.60
2019-06-07T03:53:13.090Z,85.20
2019-06-07T03:55:41.329Z,85.40
2019-06-07T04:00:39.048Z,86.50
2019-06-07T04:03:04.129Z,86.20
2019-06-07T04:05:32.781Z,86.20
2019-06-07T04:07:59.086Z,85.80
2019-06-07T04:10:44.868Z,86.30
2019-06-07T04:12:54.773Z,86.70
2019-06-07T04:15:21.005Z,86.40
2019-06-07T04:18:01.262Z,87.20
2019-06-07T04:20:15.536Z,87.20
2019-06-07T04:22:42.851Z,87.80
2019-06-07T04:25:11.511Z,86.60
2019-06-07T04:27:40.929Z,86.90
2019-06-07T04:30:08.839Z,86.50
2019-06-07T04:32:37.163Z,86.10
2019-06-07T04:35:05.249Z,86.00
2019-06-07T04:37:33.451Z,85.90
2019-06-07T04:40:00.789Z,85.90
2019-06-07T04:42:34.424Z,86.00
2019-06-07T04:44:58.376Z,85.40
2019-06-07T04:47:25.330Z,84.90
2019-06-07T04:49:52.090Z,84.20
2019-06-07T04:52:18.632Z,84.00
2019-06-07T04:54:45.920Z,83.20
2019-06-07T04:57:14.756Z,82.40
2019-06-07T05:00:11.026Z,82.30
2019-06-07T05:02:09.265Z,81.80
2019-06-07T05:04:37.139Z,81.80
2019-06-07T05:07:05.723Z,81.40
2019-06-07T05:09:32.621Z,80.60
2019-06-07T05:12:00.463Z,80.20
2019-06-07T05:14:28.348Z,79.60
2019-06-07T05:16:55.291Z,79.00
2019-06-07T05:19:21.875Z,78.80
2019-06-07T05:22:02.491Z,78.50
2019-06-07T05:24:16.397Z,77.00
2019-06-07T05:26:43.109Z,75.80
2019-06-07T05:29:09.701Z,74.20
2019-06-07T05:31:39.575Z,75.20
2019-06-07T05:34:04.675Z,75.50
2019-06-07T05:36:31.514Z,73.70
2019-06-07T05:38:58.698Z,74.30
2019-06-07T05:41:25.361Z,74.50
2019-06-07T05:44:11.564Z,73.30
2019-06-07T05:46:20.024Z,73.80
2019-06-07T05:48:46.528Z,74.10
2019-06-07T05:51:12.871Z,75.10
2019-06-07T05:53:40.803Z,75.70
2019-06-07T05:56:07.671Z,74.40
2019-06-07T05:58:35.163Z,72.50
2019-06-07T06:01:41.681Z,71.70
2019-06-07T06:03:30.069Z,69.50
2019-06-07T06:05:56.373Z,66.30
2019-06-07T06:08:23.433Z,64.40
2019-06-07T06:10:49.681Z,66.10
2019-06-07T06:13:16.234Z,69.40
2019-06-07T06:15:56.386Z,70.70
2019-06-07T06:18:10.647Z,68.20
2019-06-07T06:21:00.838Z,64.50
2019-06-07T06:23:05.665Z,63.50
2019-06-07T06:25:33.924Z,64.20
2019-06-07T06:28:11.752Z,62.90
2019-06-07T06:30:28.765Z,63.30
2019-06-07T06:32:58.408Z,63.80
2019-06-07T06:35:23.456Z,64.80
2019-06-07T06:37:53.174Z,67.10
2019-06-07T06:40:19.994Z,62.70
2019-06-07T06:42:49.059Z,59.10
2019-06-07T06:45:15.026Z,58.30
2019-06-07T06:47:43.139Z,56.00
2019-06-07T06:50:11.108Z,53.20
2019-06-07T06:52:39.930Z,53.70
2019-06-07T06:55:07.683Z,54.50
2019-06-07T06:57:33.913Z,54.20
2019-06-07T07:00:00.141Z,53.00
2019-06-07T07:02:26.508Z,52.80
2019-06-07T07:04:54.094Z,52.70
2019-06-07T07:07:21.632Z,53.50
2019-06-07T07:09:53.918Z,52.60
2019-06-07T07:12:16.278Z,51.60
2019-06-07T07:14:45.585Z,52.30
2019-06-07T07:17:10.506Z,49.80
2019-06-07T07:19:36.789Z,49.40
2019-06-07T07:22:03.142Z,52.40
2019-06-07T07:24:29.416Z,54.50
2019-06-07T07:26:58.306Z,52.10
2019-06-07T07:29:23.732Z,52.40
2019-06-07T07:31:52.345Z,53.00
2019-06-07T07:34:33.554Z,52.60
2019-06-07T07:36:48.286Z,51.90
2019-06-07T07:39:14.140Z,52.30
2019-06-07T07:41:40.381Z,52.40
2019-06-07T07:44:07.932Z,53.20
2019-06-07T07:46:35.513Z,52.40
2019-06-07T07:49:01.994Z,52.40
2019-06-07T07:51:28.205Z,52.50
2019-06-07T07:54:09.071Z,54.10
2019-06-07T07:56:22.368Z,54.70
2019-06-07T07:58:53.694Z,56.60
2019-06-07T08:01:16.612Z,57.10
2019-06-07T08:03:42.855Z,58.00
2019-06-07T08:06:09.060Z,57.30
2019-06-07T08:08:35.316Z,56.70
2019-06-07T08:11:02.501Z,55.00
2019-06-07T08:13:28.876Z,56.30
2019-06-07T08:15:59.258Z,53.80
2019-06-07T08:18:23.135Z,55.60
2019-06-07T08:21:09.759Z,54.20
2019-06-07T08:23:17.408Z,50.20
2019-06-07T08:25:43.636Z,48.80
2019-06-07T08:28:09.849Z,48.20
2019-06-07T08:31:00.080Z,47.60
2019-06-07T08:33:24.847Z,45.80
2019-06-07T08:38:23.078Z,43.00
2019-06-07T08:40:29.616Z,43.90
2019-06-07T08:43:19.322Z,42.60
2019-06-07T08:45:24.752Z,39.80
2019-06-07T08:47:57.169Z,41.70
2019-06-07T08:50:20.603Z,43.20
2019-06-07T08:52:47.078Z,44.40
2019-06-07T08:55:13.493Z,43.80
2019-06-07T08:57:39.715Z,44.60
2019-06-07T09:00:41.850Z,42.90
2019-06-07T09:02:35.177Z,40.40
2019-06-07T09:05:10.943Z,39.10
2019-06-07T09:07:29.342Z,37.60
2019-06-07T09:10:03.453Z,37.60
2019-06-07T09:12:23.609Z,36.40
2019-06-07T09:15:06.318Z,37.70
2019-06-07T09:17:18.355Z,35.70
2019-06-07T09:19:44.608Z,36.90
2019-06-07T09:22:11.517Z,38.00
2019-06-07T09:24:38.170Z,37.60
2019-06-07T09:27:07.646Z,37.20
2019-06-07T09:29:32.574Z,39.10
2019-06-07T09:32:00.624Z,38.00
2019-06-07T09:34:27.001Z,37.30
2019-06-07T09:36:53.396Z,35.30
2019-06-07T09:39:19.732Z,34.50
2019-06-07T09:41:50.122Z,33.30
2019-06-07T09:44:24.054Z,33.40
2019-06-07T09:47:22.418Z,32.90
2019-06-07T09:49:32.981Z,33.90
2019-06-07T09:52:00.512Z,34.90
2019-06-07T09:55:03.755Z,33.30
2019-06-07T09:56:54.151Z,33.10
2019-06-07T09:59:21.418Z,32.50
2019-06-07T10:01:47.694Z,33.40
2019-06-07T10:04:28.450Z,35.20
2019-06-07T10:06:41.984Z,34.40
2019-06-07T10:11:38.780Z,37.30
2019-06-07T10:14:04.983Z,37.40
2019-06-07T10:16:45.779Z,38.80
2019-06-07T10:18:59.445Z,38.40
2019-06-07T10:21:25.676Z,37.30
2019-06-07T10:23:51.898Z,37.80
2019-06-07T10:26:18.137Z,37.20
2019-06-07T10:28:44.366Z,37.40
2019-06-07T10:31:11.411Z,35.90
2019-06-07T10:33:38.036Z,35.30
2019-06-07T10:36:04.487Z,35.60
2019-06-07T10:38:30.897Z,35.20
2019-06-07T10:40:57.151Z,34.60
2019-06-07T10:43:23.415Z,36.20
2019-06-07T10:45:49.658Z,36.10
2019-06-07T10:48:15.924Z,34.60
2019-06-07T10:50:42.212Z,36.40
2019-06-07T10:53:08.485Z,37.10
2019-06-07T10:55:34.746Z,36.70
2019-06-07T10:58:01.060Z,37.50
2019-06-07T11:00:28.026Z,39.00
2019-06-07T11:02:55.259Z,40.20
2019-06-07T11:05:21.933Z,41.20
2019-06-07T11:07:48.186Z,42.80
2019-06-07T11:10:19.087Z,43.70
2019-06-07T11:12:43.061Z,42.00
2019-06-07T11:15:11.080Z,42.70
2019-06-07T11:17:37.655Z,43.90
2019-06-07T11:20:08.391Z,44.40
2019-06-07T11:22:35.004Z,45.50
2019-06-07T11:25:01.354Z,46.90
2019-06-07T11:27:27.738Z,47.80
2019-06-07T11:29:54.021Z,47.90
2019-06-07T11:32:20.275Z,48.30
2019-06-07T11:34:46.533Z,49.40
2019-06-07T11:37:13.810Z,49.60
2019-06-07T11:39:40.825Z,49.70
2019-06-07T11:42:07.947Z,48.80
2019-06-07T11:44:34.269Z,47.50
2019-06-07T11:47:00.519Z,48.00
2019-06-07T11:49:26.780Z,47.60
2019-06-07T11:51:53.028Z,47.20
2019-06-07T11:54:20.611Z,47.30
2019-06-07T11:56:47.468Z,47.50
2019-06-07T11:59:13.749Z,47.00
2019-06-07T12:01:39.988Z,47.50
2019-06-07T12:04:07.346Z,48.80
2019-06-07T12:06:33.987Z,49.10
2019-06-07T12:09:00.226Z,50.10
2019-06-07T12:11:26.506Z,51.80
2019-06-07T12:13:52.741Z,53.30
2019-06-07T12:16:19.388Z,53.80
2019-06-07T12:18:45.975Z,55.00
2019-06-07T12:21:13.550Z,56.50
2019-06-07T12:23:40.013Z,56.40
2019-06-07T12:26:06.292Z,59.80
2019-06-07T12:28:33.560Z,62.10
2019-06-07T12:31:00.863Z,64.60
2019-06-07T12:33:27.147Z,68.60
2019-06-07T12:35:53.589Z,61.30
2019-06-07T12:38:21.041Z,57.70
2019-06-07T12:40:57.213Z,57.60
2019-06-07T12:43:16.720Z,58.90
2019-06-07T12:45:45.423Z,58.80
2019-06-07T12:48:11.176Z,59.30
2019-06-07T12:50:43.250Z,60.70
2019-06-07T12:53:05.594Z,62.60
2019-06-07T12:55:31.938Z,63.00
2019-06-07T12:57:58.208Z,63.10
2019-06-07T13:00:24.656Z,63.60
2019-06-07T13:02:50.991Z,65.50
2019-06-07T13:05:17.937Z,67.50
2019-06-07T13:07:44.552Z,67.80
2019-06-07T13:10:11.106Z,69.30
2019-06-07T13:12:37.450Z,67.40
2019-06-07T13:15:05.636Z,65.90
2019-06-07T13:17:31.872Z,65.90
2019-06-07T13:19:58.117Z,64.80
2019-06-07T13:22:24.507Z,67.50
2019-06-07T13:24:50.731Z,67.50
2019-06-07T13:27:18.193Z,66.50
2019-06-07T13:29:44.685Z,66.90
2019-06-07T13:32:11.085Z,67.40
2019-06-07T13:34:37.332Z,67.10
2019-06-07T13:37:03.681Z,67.50
2019-06-07T13:39:30.011Z,69.50
2019-06-07T13:41:56.287Z,68.50
2019-06-07T13:44:22.947Z,67.60
2019-06-07T13:46:49.236Z,67.20
2019-06-07T13:49:17.212Z,66.10
2019-06-07T13:51:44.005Z,66.80
2019-06-07T13:54:10.284Z,66.30
2019-06-07T13:56:37.686Z,67.40
2019-06-07T13:59:03.946Z,66.60
2019-06-07T14:01:30.217Z,67.60
2019-06-07T14:03:56.465Z,70.80
2019-06-07T14:06:23.435Z,72.10
2019-06-07T14:08:50.087Z,73.30
2019-06-07T14:11:16.357Z,73.00
2019-06-07T14:13:42.617Z,73.30
2019-06-07T14:16:08.881Z,72.20
2019-06-07T14:18:35.141Z,72.10
2019-06-07T14:21:01.363Z,72.20
2019-06-07T14:23:42.463Z,71.50
2019-06-07T14:25:55.908Z,71.00
2019-06-07T14:28:26.303Z,71.50
2019-06-07T14:30:50.247Z,71.10
2019-06-07T14:33:16.528Z,71.10
2019-06-07T14:35:42.791Z,70.80
2019-06-07T14:38:09.034Z,71.60
2019-06-07T14:40:35.590Z,72.00
2019-06-07T14:43:01.846Z,72.90
2019-06-07T14:45:28.067Z,72.90
2019-06-07T14:47:54.323Z,72.60
2019-06-07T14:50:20.676Z,72.50
2019-06-07T14:52:46.943Z,71.80
2019-06-07T14:55:13.833Z,71.30
2019-06-07T14:57:40.083Z,72.10
2019-06-07T15:00:11.849Z,71.60
2019-06-07T15:02:39.853Z,70.40
2019-06-07T15:05:07.463Z,70.40
2019-06-07T15:07:34.865Z,69.70
2019-06-07T15:10:02.016Z,68.60
2019-06-07T15:12:29.333Z,67.80
2019-06-07T15:14:55.832Z,67.60
2019-06-07T15:17:22.164Z,67.80
2019-06-07T15:19:48.401Z,67.30
2019-06-07T15:22:14.668Z,67.00
2019-06-07T15:24:41.020Z,67.30
2019-06-07T15:27:07.295Z,67.20
2019-06-07T15:29:33.840Z,67.40
2019-06-07T15:32:00.409Z,66.50
2019-06-07T15:34:28.850Z,66.90
2019-06-07T15:36:54.679Z,66.70
2019-06-07T15:39:20.956Z,65.90
2019-06-07T15:41:47.199Z,65.80
2019-06-07T15:44:13.594Z,65.00
2019-06-07T15:46:40.293Z,64.70
2019-06-07T15:49:06.767Z,65.00
2019-06-07T15:51:34.363Z,65.60
2019-06-07T15:54:00.888Z,65.00
2019-06-07T15:56:27.131Z,64.70
2019-06-07T15:58:53.392Z,64.90
2019-06-07T16:01:19.677Z,64.10
2019-06-07T16:03:46.058Z,63.20
2019-06-07T16:06:12.509Z,62.60
2019-06-07T16:08:38.791Z,61.80
2019-06-07T16:11:05.056Z,60.20
2019-06-07T16:13:32.419Z,60.90
2019-06-07T16:15:58.928Z,61.00
2019-06-07T16:18:25.331Z,60.90
2019-06-07T16:20:51.520Z,60.30
2019-06-07T16:23:17.885Z,59.80
2019-06-07T16:25:44.430Z,61.20
2019-06-07T16:28:10.852Z,61.30
2019-06-07T16:30:38.404Z,60.90
2019-06-07T16:33:05.679Z,60.70
2019-06-07T16:35:33.333Z,61.20
2019-06-07T16:37:59.552Z,61.00
2019-06-07T16:40:25.896Z,62.20
2019-06-07T16:42:52.149Z,62.80
2019-06-07T16:45:19.190Z,62.70
2019-06-07T16:47:47.711Z,63.10
2019-06-07T16:50:13.695Z,64.00
2019-06-07T16:52:39.970Z,63.10
2019-06-07T16:55:08.713Z,63.40
2019-06-07T16:57:34.971Z,63.10
2019-06-07T17:00:01.310Z,63.80
2019-06-07T17:02:29.668Z,64.20
2019-06-07T17:04:55.868Z,64.10
2019-06-07T17:07:22.142Z,64.40
2019-06-07T17:09:49.468Z,64.00
2019-06-07T17:12:16.110Z,64.50
2019-06-07T17:14:42.481Z,64.80
2019-06-07T17:17:09.526Z,64.00
2019-06-07T17:19:35.809Z,64.50
2019-06-07T17:22:02.148Z,65.20
2019-06-07T17:24:30.329Z,64.80
2019-06-07T17:26:56.563Z,64.80
2019-06-07T17:29:22.809Z,65.50
2019-06-07T17:31:50.383Z,65.70
2019-06-07T17:34:16.718Z,66.00
2019-06-07T17:36:44.911Z,65.90
2019-06-07T17:39:11.243Z,67.10
2019-06-07T17:41:50.448Z,67.30
2019-06-07T17:44:05.706Z,66.90
2019-06-07T17:46:32.340Z,67.60
2019-06-07T17:48:58.575Z,67.10
2019-06-07T17:51:24.811Z,66.70
2019-06-07T17:53:52.066Z,66.60
2019-06-07T17:56:18.520Z,66.90
2019-06-07T17:58:46.416Z,67.10
2019-06-07T18:01:13.011Z,67.00
2019-06-07T18:03:39.238Z,67.40
2019-06-07T18:06:05.626Z,67.40
2019-06-07T18:08:33.965Z,66.70
2019-06-07T18:11:00.365Z,66.00
2019-06-07T18:13:26.720Z,65.80
2019-06-07T18:15:58.770Z,65.80
2019-06-07T18:18:21.124Z,65.60
2019-06-07T18:20:47.499Z,65.10
2019-06-07T18:23:14.084Z,64.60
2019-06-07T18:25:40.529Z,64.60
2019-06-07T18:28:07.051Z,65.30
2019-06-07T18:30:34.515Z,65.50
2019-06-07T18:33:01.115Z,66.10
2019-06-07T18:35:27.612Z,66.20
2019-06-07T18:37:55.167Z,66.60
2019-06-07T18:40:21.835Z,66.70
2019-06-07T18:42:49.111Z,67.20
2019-06-07T18:45:15.913Z,67.70
2019-06-07T18:47:42.159Z,68.40
2019-06-07T18:50:10.163Z,68.80
2019-06-07T18:52:38.533Z,69.00
2019-06-07T18:55:09.100Z,69.00
2019-06-07T18:57:35.549Z,69.20
2019-06-07T19:00:06.494Z,70.20
2019-06-07T19:02:32.903Z,70.70
2019-06-07T19:04:59.588Z,71.00
2019-06-07T19:07:25.845Z,71.10
2019-06-07T19:09:52.632Z,71.40
2019-06-07T19:12:19.071Z,72.20
2019-06-07T19:14:45.416Z,72.50
2019-06-07T19:17:11.724Z,73.10
2019-06-07T19:19:37.959Z,73.00
2019-06-07T19:22:04.247Z,73.10
2019-06-07T19:24:30.574Z,72.90
2019-06-07T19:26:56.831Z,72.90
2019-06-07T19:29:23.508Z,74.30
2019-06-07T19:31:50.748Z,75.00
2019-06-07T19:34:17.225Z,76.80
2019-06-07T19:36:48.637Z,76.80
2019-06-07T19:39:11.659Z,77.40
2019-06-07T19:41:38.135Z,78.30
2019-06-07T19:44:04.371Z,80.00
2019-06-07T19:46:32.151Z,82.50
2019-06-07T19:48:58.731Z,83.10
2019-06-07T19:51:24.991Z,83.10
2019-06-07T19:53:52.859Z,84.10
2019-06-07T19:56:19.760Z,85.20
2019-06-07T19:58:46.031Z,85.90
2019-06-07T20:01:12.262Z,85.10
2019-06-07T20:03:38.903Z,84.80
2019-06-07T20:06:05.294Z,84.80
2019-06-07T20:08:31.743Z,84.60
2019-06-07T20:10:58.500Z,83.50
2019-06-07T20:13:25.122Z,84.00
2019-06-07T20:15:51.695Z,83.60
2019-06-07T20:18:17.919Z,84.30
2019-06-07T20:20:45.241Z,85.00
2019-06-07T20:23:11.524Z,85.00
2019-06-07T20:25:37.927Z,86.40
2019-06-07T20:28:05.597Z,87.30
2019-06-07T20:30:32.342Z,86.70
2019-06-07T20:32:59.800Z,86.50
2019-06-07T20:35:26.225Z,86.20
2019-06-07T20:37:52.668Z,86.00
2019-06-07T20:40:24.360Z,86.00
2019-06-07T20:42:47.378Z,85.60
2019-06-07T20:45:14.383Z,85.70
2019-06-07T20:47:40.856Z,85.40
2019-06-07T20:50:08.678Z,84.80
2019-06-07T20:52:35.571Z,84.50
2019-06-07T20:55:03.125Z,84.20
2019-06-07T20:57:29.826Z,83.10
2019-06-07T20:59:56.092Z,83.20
2019-06-07T21:02:22.693Z,83.50
2019-06-07T21:04:50.913Z,84.00
2019-06-07T21:07:17.650Z,83.00
2019-06-07T21:09:44.260Z,83.20
2019-06-07T21:12:11.023Z,82.90
2019-06-07T21:14:37.374Z,82.40
2019-06-07T21:17:04.183Z,82.00
2019-06-07T21:19:30.874Z,82.50
2019-06-07T21:21:57.072Z,81.80
2019-06-07T21:24:23.735Z,82.20
2019-06-07T21:26:53.154Z,82.40
2019-06-07T21:29:18.178Z,82.00
2019-06-07T21:31:44.847Z,81.90
2019-06-07T21:34:14.012Z,81.70
2019-06-07T21:36:39.351Z,82.10
2019-06-07T21:39:06.427Z,81.90
2019-06-07T21:41:32.720Z,82.40
2019-06-07T21:43:58.957Z,81.70
2019-06-07T21:46:25.328Z,81.60
2019-06-07T21:48:51.602Z,81.90
2019-06-07T21:51:18.136Z,82.80
2019-06-07T21:53:44.627Z,83.20
2019-06-07T21:56:11.285Z,82.50
2019-06-07T21:58:37.842Z,82.00
2019-06-07T22:01:12.057Z,81.40
2019-06-07T22:03:38.478Z,80.30
2019-06-07T22:06:05.643Z,80.80
2019-06-07T22:08:32.686Z,80.70
2019-06-07T22:10:59.268Z,80.40
2019-06-07T22:13:25.588Z,80.20
2019-06-07T22:15:52.158Z,80.50
2019-06-07T22:18:18.428Z,81.50
2019-06-07T22:20:44.638Z,81.70
2019-06-07T22:23:10.998Z,80.50
2019-06-07T22:25:37.339Z,79.90
2019-06-07T22:28:03.783Z,78.90
2019-06-07T22:30:30.128Z,78.60
2019-06-07T22:32:56.431Z,78.10
2019-06-07T22:35:22.803Z,77.30
2019-06-07T22:37:49.389Z,76.90
2019-06-07T22:40:16.242Z,76.50
2019-06-07T22:42:42.665Z,76.20
2019-06-07T22:45:10.940Z,75.80
2019-06-07T22:47:37.580Z,75.90
2019-06-07T22:50:10.664Z,75.70
2019-06-07T22:52:37.941Z,75.60
2019-06-07T22:55:05.485Z,75.50
2019-06-07T22:57:36.378Z,75.90
2019-06-07T23:00:10.205Z,76.70
2019-06-07T23:02:33.084Z,75.90
2019-06-07T23:04:59.311Z,75.00
2019-06-07T23:07:25.887Z,74.90
2019-06-07T23:09:52.470Z,74.60
2019-06-07T23:12:19.553Z,74.60
2019-06-07T23:14:46.200Z,74.20
2019-06-07T23:17:13.872Z,73.70
2019-06-07T23:19:40.704Z,73.00
2019-06-07T23:22:07.331Z,72.60
2019-06-07T23:24:33.970Z,72.30
2019-06-07T23:27:00.598Z,71.60
2019-06-07T23:29:27.247Z,69.50
2019-06-07T23:31:53.878Z,69.50
2019-06-07T23:34:21.020Z,69.00
2019-06-07T23:36:47.518Z,68.40
2019-06-07T23:39:15.282Z,68.20
2019-06-07T23:41:41.674Z,68.00
2019-06-07T23:44:08.288Z,68.00
2019-06-07T23:46:34.959Z,67.90
2019-06-07T23:49:01.212Z,67.30
2019-06-07T23:51:27.466Z,67.00
2019-06-07T23:53:54.031Z,66.90
2019-06-07T23:56:20.555Z,67.20
2019-06-07T23:58:47.332Z,66.70
